createdAt,value
2022-10-22T00:01:24.672Z,12.30
2022-10-22T00:03:53.270Z,12.30
2022-10-22T00:06:21.364Z,12.30
2022-10-22T00:08:49.624Z,12.30
2022-10-22T00:11:20.764Z,12.30
2022-10-22T00:13:49.708Z,12.20
2022-10-22T00:16:17.919Z,12.20
2022-10-22T00:18:45.913Z,12.20
2022-10-22T00:21:13.991Z,12.20
2022-10-22T00:23:42.728Z,12.20
2022-10-22T00:26:11.954Z,12.20
2022-10-22T00:28:41.436Z,12.20
2022-10-22T00:31:09.508Z,12.20
2022-10-22T00:33:37.545Z,12.20
2022-10-22T00:36:06.104Z,12.20
2022-10-22T00:38:34.278Z,12.30
2022-10-22T00:43:36.055Z,12.30
2022-10-22T00:46:05.682Z,12.30
2022-10-22T00:48:34.795Z,12.30
2022-10-22T00:51:09.144Z,12.30
2022-10-22T00:53:40.675Z,12.30
2022-10-22T00:56:10.027Z,12.30
2022-10-22T00:58:40.715Z,12.30
2022-10-22T01:01:13.947Z,12.30
2022-10-22T01:03:42.120Z,12.30
2022-10-22T01:06:16.158Z,12.30
2022-10-22T01:08:54.293Z,12.30
2022-10-22T01:11:28.810Z,12.30
2022-10-22T01:14:03.611Z,12.30
2022-10-22T01:16:41.484Z,12.30
2022-10-22T01:19:26.640Z,12.30
2022-10-22T01:21:59.762Z,12.30
2022-10-22T01:24:43.083Z,12.30
2022-10-22T01:27:35.803Z,12.30
2022-10-22T01:30:08.144Z,12.20
2022-10-22T01:32:40.972Z,12.20
2022-10-22T01:35:12.761Z,12.20
2022-10-22T01:37:45.165Z,12.20
2022-10-22T01:40:15.055Z,12.20
2022-10-22T01:42:43.086Z,12.30
2022-10-22T01:45:16.295Z,12.30
2022-10-22T01:47:55.244Z,12.30
2022-10-22T01:50:43.558Z,12.30
2022-10-22T01:53:26.328Z,12.30
2022-10-22T01:56:07.095Z,12.30
2022-10-22T01:58:44.369Z,12.30
2022-10-22T02:01:22.884Z,12.30
2022-10-22T02:03:57.233Z,12.30
2022-10-22T02:09:22.793Z,12.40
2022-10-22T02:11:52.480Z,12.40
2022-10-22T02:14:21.071Z,12.40
2022-10-22T02:16:51.587Z,12.40
2022-10-22T02:19:26.523Z,12.40
2022-10-22T02:21:55.609Z,12.40
2022-10-22T02:24:25.111Z,12.30
2022-10-22T02:27:00.254Z,12.30
2022-10-22T02:29:33.934Z,12.30
2022-10-22T02:32:06.947Z,12.30
2022-10-22T02:34:35.339Z,12.30
2022-10-22T02:37:05.286Z,12.30
2022-10-22T02:39:36.308Z,12.20
2022-10-22T02:42:04.925Z,12.30
2022-10-22T02:44:33.107Z,12.30
2022-10-22T02:47:01.463Z,12.30
2022-10-22T02:49:31.265Z,12.30
2022-10-22T02:51:59.758Z,12.40
2022-10-22T02:54:28.013Z,12.40
2022-10-22T02:56:56.136Z,12.40
2022-10-22T02:59:24.402Z,12.40
2022-10-22T03:01:52.468Z,12.50
2022-10-22T03:04:20.675Z,12.40
2022-10-22T03:06:50.188Z,12.50
2022-10-22T03:09:21.330Z,12.50
2022-10-22T03:11:52.239Z,12.50
2022-10-22T03:14:22.976Z,12.50
2022-10-22T03:16:51.051Z,12.40
2022-10-22T03:19:19.262Z,12.40
2022-10-22T03:21:51.746Z,12.40
2022-10-22T03:24:22.517Z,12.30
2022-10-22T03:26:53.080Z,12.40
2022-10-22T03:29:23.190Z,12.30
2022-10-22T03:31:51.240Z,12.30
2022-10-22T03:34:19.253Z,12.30
2022-10-22T03:36:47.788Z,12.40
2022-10-22T03:39:19.704Z,12.40
2022-10-22T03:41:48.081Z,12.50
2022-10-22T03:44:17.616Z,12.50
2022-10-22T03:46:46.083Z,12.50
2022-10-22T03:49:14.173Z,12.50
2022-10-22T03:51:42.181Z,12.50
2022-10-22T03:54:10.519Z,12.60
2022-10-22T03:56:39.887Z,12.50
2022-10-22T03:59:07.937Z,12.60
2022-10-22T04:01:36.101Z,12.60
2022-10-22T04:04:04.247Z,12.60
2022-10-22T04:06:32.363Z,12.60
2022-10-22T04:09:01.168Z,12.60
2022-10-22T04:11:29.406Z,12.60
2022-10-22T04:13:58.761Z,12.60
2022-10-22T04:16:30.973Z,12.60
2022-10-22T04:18:59.027Z,12.60
2022-10-22T04:21:27.284Z,12.50
2022-10-22T04:23:55.445Z,12.50
2022-10-22T04:26:23.465Z,12.50
2022-10-22T04:28:52.974Z,12.50
2022-10-22T04:31:23.957Z,12.50
2022-10-22T04:33:54.604Z,12.50
2022-10-22T04:36:22.898Z,12.50
2022-10-22T04:38:55.078Z,12.50
2022-10-22T04:41:26.732Z,12.50
2022-10-22T04:43:55.678Z,12.50
2022-10-22T04:46:26.428Z,12.50
2022-10-22T04:48:54.568Z,12.50
2022-10-22T04:51:25.592Z,12.50
2022-10-22T04:53:54.552Z,12.50
2022-10-22T04:56:25.135Z,12.50
2022-10-22T04:58:55.280Z,12.50
2022-10-22T05:01:26.677Z,12.50
2022-10-22T05:03:56.437Z,12.50
2022-10-22T05:06:25.413Z,12.60
2022-10-22T05:08:55.897Z,12.50
2022-10-22T05:11:27.849Z,12.50
2022-10-22T05:13:57.928Z,12.50
2022-10-22T05:16:28.640Z,12.50
2022-10-22T05:18:57.288Z,12.50
2022-10-22T05:21:25.482Z,12.60
2022-10-22T05:23:54.828Z,12.60
2022-10-22T05:26:25.134Z,12.60
2022-10-22T05:28:53.686Z,12.60
2022-10-22T05:31:22.374Z,12.60
2022-10-22T05:33:52.762Z,12.60
2022-10-22T05:36:23.096Z,12.70
2022-10-22T05:38:51.502Z,12.70
2022-10-22T05:41:21.545Z,12.70
2022-10-22T05:43:49.878Z,12.70
2022-10-22T05:46:22.721Z,12.70
2022-10-22T05:48:53.256Z,12.70
2022-10-22T05:51:21.814Z,12.70
2022-10-22T05:53:53.412Z,12.70
2022-10-22T05:56:21.766Z,12.70
2022-10-22T05:58:49.981Z,12.70
2022-10-22T06:01:20.845Z,12.70
2022-10-22T06:03:49.446Z,12.70
2022-10-22T06:06:22.875Z,12.70
2022-10-22T06:08:52.725Z,12.70
2022-10-22T06:11:22.245Z,12.70
2022-10-22T06:13:51.253Z,12.70
2022-10-22T06:16:19.429Z,12.70
2022-10-22T06:18:47.604Z,12.80
2022-10-22T06:21:17.088Z,12.80
2022-10-22T06:23:46.712Z,12.80
2022-10-22T06:26:15.433Z,12.80
2022-10-22T06:28:43.411Z,12.80
2022-10-22T06:31:11.868Z,12.90
2022-10-22T06:33:42.412Z,12.80
2022-10-22T06:36:13.006Z,12.90
2022-10-22T06:38:42.085Z,12.90
2022-10-22T06:41:13.230Z,12.90
2022-10-22T06:43:41.831Z,12.90
2022-10-22T06:46:14.664Z,12.90
2022-10-22T06:48:49.837Z,12.90
2022-10-22T06:51:18.547Z,12.90
2022-10-22T06:53:46.784Z,12.90
2022-10-22T06:56:18.955Z,12.90
2022-10-22T06:58:48.471Z,13.00
2022-10-22T07:01:18.364Z,13.00
2022-10-22T07:03:46.857Z,13.00
2022-10-22T07:06:16.095Z,13.00
2022-10-22T07:08:45.016Z,13.00
2022-10-22T07:11:17.212Z,13.00
2022-10-22T07:13:46.062Z,13.10
2022-10-22T07:16:15.522Z,13.10
2022-10-22T07:18:44.022Z,13.10
2022-10-22T07:21:13.269Z,13.20
2022-10-22T07:23:41.398Z,13.20
2022-10-22T07:26:10.984Z,13.30
2022-10-22T07:28:41.084Z,13.30
2022-10-22T07:31:11.446Z,13.40
2022-10-22T07:33:39.893Z,13.40
2022-10-22T07:36:11.403Z,13.50
2022-10-22T07:38:39.502Z,13.50
2022-10-22T07:41:07.503Z,13.50
2022-10-22T07:43:35.597Z,13.50
2022-10-22T07:46:04.964Z,13.50
2022-10-22T07:48:33.038Z,13.50
2022-10-22T07:51:01.060Z,13.60
2022-10-22T07:53:29.152Z,13.60
2022-10-22T07:55:57.185Z,13.70
2022-10-22T07:58:25.780Z,13.70
2022-10-22T08:00:56.778Z,13.70
2022-10-22T08:03:26.287Z,13.80
2022-10-22T08:05:54.830Z,13.80
2022-10-22T08:08:25.951Z,13.80
2022-10-22T08:10:59.735Z,13.80
2022-10-22T08:13:28.806Z,13.80
2022-10-22T08:15:57.787Z,13.90
2022-10-22T08:18:27.477Z,14.00
2022-10-22T08:20:55.973Z,14.00
2022-10-22T08:23:26.232Z,14.10
2022-10-22T08:25:57.309Z,14.20
2022-10-22T08:28:25.707Z,14.30
2022-10-22T08:30:53.927Z,14.30
2022-10-22T08:33:21.930Z,14.40
2022-10-22T08:35:52.740Z,14.50
2022-10-22T08:38:21.403Z,14.50
2022-10-22T08:40:53.881Z,14.60
2022-10-22T08:43:37.622Z,14.70
2022-10-22T08:46:23.645Z,14.80
2022-10-22T08:48:55.090Z,14.90
2022-10-22T08:51:28.362Z,14.90
2022-10-22T08:54:15.421Z,15.00
2022-10-22T08:56:47.488Z,15.00
2022-10-22T08:59:21.191Z,15.00
2022-10-22T09:01:52.588Z,14.90
2022-10-22T09:04:26.191Z,15.00
2022-10-22T09:06:58.736Z,15.00
2022-10-22T09:09:32.512Z,15.10
2022-10-22T09:12:02.218Z,15.10
2022-10-22T09:14:31.321Z,15.20
2022-10-22T09:17:21.925Z,15.20
2022-10-22T09:20:02.213Z,15.30
2022-10-22T09:22:39.784Z,15.40
2022-10-22T09:25:20.267Z,15.40
2022-10-22T09:27:49.128Z,15.40
2022-10-22T09:30:20.105Z,15.40
2022-10-22T09:32:51.764Z,15.40
2022-10-22T09:35:25.265Z,15.50
2022-10-22T09:37:56.678Z,15.50
2022-10-22T09:40:24.880Z,15.60
2022-10-22T09:42:52.813Z,15.70
2022-10-22T09:45:22.809Z,15.80
2022-10-22T09:48:01.647Z,15.90
2022-10-22T09:50:38.195Z,15.90
2022-10-22T09:53:15.180Z,15.90
2022-10-22T09:55:44.345Z,16.00
2022-10-22T09:58:14.311Z,16.00
2022-10-22T10:00:45.905Z,16.10
2022-10-22T10:03:19.220Z,16.10
2022-10-22T10:05:49.962Z,16.20
2022-10-22T10:08:20.108Z,16.30
2022-10-22T10:10:50.949Z,16.40
2022-10-22T10:13:44.875Z,16.50
2022-10-22T10:16:27.436Z,16.50
2022-10-22T10:19:10.820Z,16.60
2022-10-22T10:21:48.800Z,16.70
2022-10-22T10:24:26.406Z,16.60
2022-10-22T10:27:01.002Z,16.70
2022-10-22T10:29:45.971Z,16.70
2022-10-22T10:32:33.628Z,16.70
2022-10-22T10:35:16.311Z,16.80
2022-10-22T10:37:48.063Z,16.80
2022-10-22T10:40:27.775Z,16.80
2022-10-22T10:42:59.752Z,16.70
2022-10-22T10:45:34.961Z,16.70
2022-10-22T10:48:30.963Z,16.70
2022-10-22T10:51:06.314Z,16.70
2022-10-22T10:53:55.926Z,16.70
2022-10-22T10:56:39.138Z,16.60
2022-10-22T10:59:18.590Z,16.60
2022-10-22T11:02:05.711Z,16.60
2022-10-22T11:05:04.131Z,16.60
2022-10-22T11:07:39.932Z,16.70
2022-10-22T11:10:14.860Z,16.70
2022-10-22T11:12:48.804Z,16.70
2022-10-22T11:15:26.878Z,16.70
2022-10-22T11:17:57.695Z,16.70
2022-10-22T11:20:31.514Z,16.60
2022-10-22T11:23:21.866Z,16.60
2022-10-22T11:25:51.316Z,16.60
2022-10-22T11:28:25.764Z,16.50
2022-10-22T11:31:00.196Z,16.50
2022-10-22T11:33:33.809Z,16.50
2022-10-22T11:36:05.087Z,16.60
2022-10-22T11:38:35.922Z,16.60
2022-10-22T11:41:08.458Z,16.60
2022-10-22T11:43:57.441Z,16.60
2022-10-22T11:46:36.236Z,16.80
2022-10-22T11:49:17.555Z,16.90
2022-10-22T11:51:46.733Z,17.00
2022-10-22T11:54:31.159Z,17.00
2022-10-22T11:57:24.454Z,16.90
2022-10-22T11:59:58.994Z,16.90
2022-10-22T12:02:44.223Z,16.80
2022-10-22T12:05:43.767Z,16.70
2022-10-22T12:08:26.813Z,16.70
2022-10-22T12:11:14.811Z,16.60
2022-10-22T12:14:20.649Z,16.60
2022-10-22T12:16:56.876Z,16.60
2022-10-22T12:19:28.772Z,16.50
2022-10-22T12:21:59.969Z,16.40
2022-10-22T12:24:33.777Z,16.30
2022-10-22T12:27:01.887Z,16.20
2022-10-22T12:29:33.712Z,16.20
2022-10-22T12:32:05.818Z,16.30
2022-10-22T12:34:33.908Z,16.30
2022-10-22T12:37:06.831Z,16.30
2022-10-22T12:39:35.644Z,16.30
2022-10-22T12:42:07.217Z,16.30
2022-10-22T12:44:35.331Z,16.30
2022-10-22T12:47:05.117Z,16.40
2022-10-22T12:49:37.593Z,16.30
2022-10-22T12:52:10.843Z,16.30
2022-10-22T12:54:42.200Z,16.40
2022-10-22T12:57:14.499Z,16.50
2022-10-22T12:59:47.268Z,16.60
2022-10-22T13:02:26.516Z,16.80
2022-10-22T13:05:18.073Z,17.00
2022-10-22T13:07:49.327Z,17.10
2022-10-22T13:10:21.559Z,17.10
2022-10-22T13:12:55.912Z,17.10
2022-10-22T13:15:36.533Z,17.10
2022-10-22T13:18:16.735Z,17.20
2022-10-22T13:20:56.054Z,17.30
2022-10-22T13:23:26.726Z,17.30
2022-10-22T13:26:04.411Z,17.40
2022-10-22T13:28:33.758Z,17.60
2022-10-22T13:31:03.904Z,17.70
2022-10-22T13:33:36.064Z,17.80
2022-10-22T13:36:05.248Z,17.80
2022-10-22T13:38:33.247Z,18.00
2022-10-22T13:41:04.294Z,18.30
2022-10-22T13:43:32.361Z,18.40
2022-10-22T13:46:01.611Z,18.50
2022-10-22T13:48:31.152Z,18.50
2022-10-22T13:51:00.603Z,18.50
2022-10-22T13:53:31.304Z,18.60
2022-10-22T13:55:59.344Z,18.80
2022-10-22T13:58:27.470Z,19.10
2022-10-22T14:00:57.932Z,19.20
2022-10-22T14:03:29.225Z,19.40
2022-10-22T14:05:57.877Z,19.50
2022-10-22T14:08:29.308Z,19.40
2022-10-22T14:10:57.754Z,19.60
2022-10-22T14:13:26.586Z,19.70
2022-10-22T14:15:55.017Z,20.00
2022-10-22T14:18:27.465Z,20.10
2022-10-22T14:20:57.818Z,19.90
2022-10-22T14:23:29.403Z,19.70
2022-10-22T14:25:58.247Z,19.60
2022-10-22T14:28:26.564Z,19.40
2022-10-22T14:30:55.750Z,19.40
2022-10-22T14:33:30.349Z,19.40
2022-10-22T14:36:00.127Z,19.50
2022-10-22T14:38:30.932Z,19.70
2022-10-22T14:41:00.854Z,20.00
2022-10-22T14:43:31.119Z,20.30
2022-10-22T14:45:59.878Z,20.40
2022-10-22T14:48:28.176Z,20.30
2022-10-22T14:50:56.209Z,20.30
2022-10-22T14:53:24.333Z,20.50
2022-10-22T14:55:55.587Z,20.70
2022-10-22T14:58:23.720Z,20.70
2022-10-22T15:00:51.741Z,20.60
2022-10-22T15:03:19.990Z,20.50
2022-10-22T15:05:48.046Z,20.30
2022-10-22T15:08:16.406Z,20.30
2022-10-22T15:10:44.360Z,20.30
2022-10-22T15:13:13.833Z,20.10
2022-10-22T15:15:42.421Z,19.90
2022-10-22T15:18:10.645Z,19.70
2022-10-22T15:20:38.768Z,19.50
2022-10-22T15:23:06.900Z,19.40
2022-10-22T15:25:34.839Z,19.20
2022-10-22T15:28:09.657Z,19.00
2022-10-22T15:30:39.387Z,19.00
2022-10-22T15:33:07.450Z,19.00
2022-10-22T15:35:35.489Z,19.00
2022-10-22T15:38:06.569Z,18.80
2022-10-22T15:40:34.669Z,18.80
2022-10-22T15:43:02.752Z,18.70
2022-10-22T15:45:30.787Z,18.70
2022-10-22T15:48:00.250Z,18.60
2022-10-22T15:50:28.327Z,18.60
2022-10-22T15:52:56.441Z,18.40
2022-10-22T15:55:24.551Z,18.30
2022-10-22T15:57:58.014Z,18.20
2022-10-22T16:00:28.633Z,18.00
2022-10-22T16:02:56.661Z,17.90
2022-10-22T16:05:29.573Z,17.70
2022-10-22T16:07:57.658Z,17.60
2022-10-22T16:10:26.129Z,17.50
2022-10-22T16:12:54.853Z,17.30
2022-10-22T16:15:22.902Z,17.20
2022-10-22T16:17:52.977Z,17.10
2022-10-22T16:20:20.969Z,17.00
2022-10-22T16:22:52.088Z,16.80
2022-10-22T16:25:20.197Z,16.70
2022-10-22T16:27:50.493Z,16.50
2022-10-22T16:30:18.665Z,16.40
2022-10-22T16:32:46.629Z,16.20
2022-10-22T16:35:14.794Z,16.00
2022-10-22T16:37:42.996Z,15.90
2022-10-22T16:40:13.813Z,15.80
2022-10-22T16:42:42.075Z,15.70
2022-10-22T16:45:10.937Z,15.50
2022-10-22T16:47:39.645Z,15.40
2022-10-22T16:50:08.812Z,15.30
2022-10-22T16:52:36.948Z,15.20
2022-10-22T16:55:05.415Z,15.10
2022-10-22T16:57:35.905Z,15.00
2022-10-22T17:00:05.183Z,15.00
2022-10-22T17:02:33.401Z,15.00
2022-10-22T17:05:01.439Z,14.90
2022-10-22T17:07:29.645Z,14.90
2022-10-22T17:09:57.627Z,14.70
2022-10-22T17:12:25.698Z,14.70
2022-10-22T17:17:23.526Z,14.50
2022-10-22T17:19:51.572Z,14.40
2022-10-22T17:22:19.614Z,14.30
2022-10-22T17:24:47.719Z,14.20
2022-10-22T17:27:41.771Z,14.20
2022-10-22T17:30:16.839Z,14.10
2022-10-22T17:32:45.024Z,14.00
2022-10-22T17:35:15.929Z,14.00
2022-10-22T17:37:44.177Z,13.80
2022-10-22T17:40:14.402Z,13.70
2022-10-22T17:42:42.809Z,13.60
2022-10-22T17:45:12.514Z,13.50
2022-10-22T17:47:40.807Z,13.40
2022-10-22T17:50:10.328Z,13.30
2022-10-22T17:52:38.732Z,13.30
2022-10-22T17:55:07.685Z,13.30
2022-10-22T17:57:35.781Z,13.20
2022-10-22T18:00:04.332Z,13.20
2022-10-22T18:02:34.375Z,13.10
2022-10-22T18:05:02.425Z,13.10
2022-10-22T18:07:30.628Z,13.00
2022-10-22T18:09:58.630Z,12.90
2022-10-22T18:12:26.814Z,12.90
2022-10-22T18:14:55.298Z,12.80
2022-10-22T18:17:24.361Z,12.70
2022-10-22T18:19:53.743Z,12.60
2022-10-22T18:22:21.763Z,12.60
2022-10-22T18:24:49.866Z,12.50
2022-10-22T18:27:17.954Z,12.50
2022-10-22T18:29:47.040Z,12.50
2022-10-22T18:32:15.169Z,12.40
2022-10-22T18:34:43.143Z,12.40
2022-10-22T18:37:13.505Z,12.40
2022-10-22T18:39:41.753Z,12.40
2022-10-22T18:42:09.929Z,12.40
2022-10-22T18:44:37.945Z,12.40
2022-10-22T18:47:06.251Z,12.40
2022-10-22T18:49:34.237Z,12.30
2022-10-22T18:52:02.412Z,12.30
2022-10-22T18:54:31.874Z,12.30
2022-10-22T18:57:02.945Z,12.30
2022-10-22T18:59:32.160Z,12.30
2022-10-22T19:02:00.438Z,12.30
2022-10-22T19:04:33.244Z,12.20
2022-10-22T19:07:01.507Z,12.20
2022-10-22T19:09:31.197Z,12.20
2022-10-22T19:12:00.403Z,12.20
2022-10-22T19:14:29.106Z,12.10
2022-10-22T19:16:57.292Z,12.10
2022-10-22T19:19:25.505Z,12.10
2022-10-22T19:21:53.832Z,12.10
2022-10-22T19:24:21.979Z,12.00
2022-10-22T19:26:51.433Z,12.00
2022-10-22T19:29:21.094Z,12.00
2022-10-22T19:31:51.139Z,12.00
2022-10-22T19:34:19.812Z,11.90
2022-10-22T19:36:48.553Z,11.90
2022-10-22T19:39:18.091Z,11.90
2022-10-22T19:41:46.787Z,11.80
2022-10-22T19:44:20.012Z,11.80
2022-10-22T19:46:48.098Z,11.80
2022-10-22T19:49:18.974Z,11.80
2022-10-22T19:51:50.150Z,11.80
2022-10-22T19:54:20.313Z,11.70
2022-10-22T19:56:49.160Z,11.70
2022-10-22T19:59:20.630Z,11.70
2022-10-22T20:01:48.912Z,11.60
2022-10-22T20:04:18.201Z,11.60
2022-10-22T20:06:47.131Z,11.60
2022-10-22T20:09:15.199Z,11.50
2022-10-22T20:11:44.523Z,11.50
2022-10-22T20:14:12.581Z,11.50
2022-10-22T20:16:42.280Z,11.40
2022-10-22T20:19:13.412Z,11.40
2022-10-22T20:21:41.838Z,11.40
2022-10-22T20:24:09.985Z,11.40
2022-10-22T20:26:37.971Z,11.40
2022-10-22T20:29:06.050Z,11.40
2022-10-22T20:31:35.934Z,11.30
2022-10-22T20:34:05.337Z,11.30
2022-10-22T20:36:33.848Z,11.30
2022-10-22T20:39:06.171Z,11.20
2022-10-22T20:41:35.301Z,11.20
2022-10-22T20:44:03.312Z,11.20
2022-10-22T20:46:33.385Z,11.20
2022-10-22T20:49:03.137Z,11.10
2022-10-22T20:51:33.137Z,11.10
2022-10-22T20:54:01.148Z,11.10
2022-10-22T20:56:29.736Z,11.10
2022-10-22T20:59:05.057Z,11.10
2022-10-22T21:01:35.281Z,11.10
2022-10-22T21:04:04.774Z,11.10
2022-10-22T21:06:37.960Z,11.20
2022-10-22T21:09:07.295Z,11.20
2022-10-22T21:11:35.509Z,11.20
2022-10-22T21:14:04.227Z,11.30
2022-10-22T21:16:32.881Z,11.30
2022-10-22T21:19:01.397Z,11.30
2022-10-22T21:21:29.681Z,11.30
2022-10-22T21:23:59.303Z,11.30
2022-10-22T21:26:27.555Z,11.30
2022-10-22T21:28:55.624Z,11.30
2022-10-22T21:31:26.094Z,11.30
2022-10-22T21:33:55.074Z,11.20
2022-10-22T21:36:23.775Z,11.20
2022-10-22T21:38:52.523Z,11.20
2022-10-22T21:41:23.754Z,11.20
2022-10-22T21:43:52.500Z,11.20
2022-10-22T21:46:21.647Z,11.20
2022-10-22T21:49:14.637Z,11.20
2022-10-22T21:51:44.609Z,11.10
2022-10-22T21:54:13.388Z,11.10
2022-10-22T21:56:42.866Z,11.00
2022-10-22T21:59:10.905Z,11.00
2022-10-22T22:01:38.974Z,11.00
2022-10-22T22:04:07.427Z,10.90
2022-10-22T22:06:35.801Z,10.90
2022-10-22T22:09:07.177Z,11.00
2022-10-22T22:11:35.421Z,10.90
2022-10-22T22:14:05.569Z,10.90
2022-10-22T22:16:34.702Z,10.90
2022-10-22T22:21:39.799Z,10.90
2022-10-22T22:24:09.193Z,10.80
2022-10-22T22:26:37.726Z,10.80
2022-10-22T22:29:07.190Z,10.80
2022-10-22T22:31:37.356Z,10.70
2022-10-22T22:34:07.565Z,10.70
2022-10-22T22:36:38.167Z,10.70
2022-10-22T22:39:07.453Z,10.60
2022-10-22T22:41:35.846Z,10.60
2022-10-22T22:44:03.926Z,10.50
2022-10-22T22:46:33.449Z,10.50
2022-10-22T22:49:01.477Z,10.50
2022-10-22T22:51:29.573Z,10.40
2022-10-22T22:53:58.872Z,10.40
2022-10-22T22:56:29.007Z,10.40
2022-10-22T22:58:58.803Z,10.40
2022-10-22T23:01:29.572Z,10.40
2022-10-22T23:04:00.767Z,10.40
2022-10-22T23:06:31.219Z,10.40
2022-10-22T23:08:59.950Z,10.40
2022-10-22T23:11:28.732Z,10.40
2022-10-22T23:14:00.042Z,10.40
2022-10-22T23:16:31.592Z,10.30
2022-10-22T23:19:01.717Z,10.30
2022-10-22T23:21:31.893Z,10.30
2022-10-22T23:24:02.051Z,10.30
2022-10-22T23:26:33.108Z,10.30
2022-10-22T23:29:02.375Z,10.30
2022-10-22T23:31:30.633Z,10.30
2022-10-22T23:34:00.307Z,10.30
2022-10-22T23:36:28.770Z,10.20
2022-10-22T23:38:56.835Z,10.30
2022-10-22T23:41:24.972Z,10.20
2022-10-22T23:43:52.985Z,10.20
2022-10-22T23:46:21.038Z,10.10
2022-10-22T23:48:49.183Z,10.10
2022-10-22T23:51:19.135Z,10.10
2022-10-22T23:53:48.102Z,10.00
2022-10-22T23:56:18.370Z,10.00
2022-10-22T23:58:46.552Z,10.00
